sensor_id;sensor_type;location;lat;lon;timestamp;P1;durP1;ratioP1;P2;durP2;ratioP2
48767;SDS011;34933;40.968;14.538;2022-08-06T00:02:20;5.07;;;3.25;;
48767;SDS011;34933;40.968;14.538;2022-08-06T00:05:07;9.07;;;3.38;;
48767;SDS011;34933;40.968;14.538;2022-08-06T00:07:52;8.73;;;3.15;;
48767;SDS011;34933;40.968;14.538;2022-08-06T00:10:39;4.43;;;3.28;;
48767;SDS011;34933;40.968;14.538;2022-08-06T00:13:23;7.43;;;3.15;;
48767;SDS011;34933;40.968;14.538;2022-08-06T00:16:08;5.40;;;3.80;;
48767;SDS011;34933;40.968;14.538;2022-08-06T00:18:52;10.80;;;3.70;;
48767;SDS011;34933;40.968;14.538;2022-08-06T00:21:37;4.95;;;3.38;;
48767;SDS011;34933;40.968;14.538;2022-08-06T00:24:22;4.63;;;3.15;;
48767;SDS011;34933;40.968;14.538;2022-08-06T00:27:06;7.57;;;3.60;;
48767;SDS011;34933;40.968;14.538;2022-08-06T00:29:51;4.78;;;3.05;;
48767;SDS011;34933;40.968;14.538;2022-08-06T00:32:36;8.88;;;3.67;;
48767;SDS011;34933;40.968;14.538;2022-08-06T00:35:21;7.22;;;3.30;;
48767;SDS011;34933;40.968;14.538;2022-08-06T00:38:05;10.10;;;3.63;;
48767;SDS011;34933;40.968;14.538;2022-08-06T00:40:50;5.50;;;3.53;;
48767;SDS011;34933;40.968;14.538;2022-08-06T00:43:35;3.53;;;3.22;;
48767;SDS011;34933;40.968;14.538;2022-08-06T00:46:20;7.03;;;4.22;;
48767;SDS011;34933;40.968;14.538;2022-08-06T00:49:05;8.85;;;3.63;;
48767;SDS011;34933;40.968;14.538;2022-08-06T00:51:50;4.50;;;3.15;;
48767;SDS011;34933;40.968;14.538;2022-08-06T00:54:35;10.13;;;4.10;;
48767;SDS011;34933;40.968;14.538;2022-08-06T00:57:19;4.80;;;3.22;;
48767;SDS011;34933;40.968;14.538;2022-08-06T01:00:05;4.72;;;3.30;;
48767;SDS011;34933;40.968;14.538;2022-08-06T01:02:51;6.18;;;3.45;;
48767;SDS011;34933;40.968;14.538;2022-08-06T01:05:36;7.88;;;3.80;;
48767;SDS011;34933;40.968;14.538;2022-08-06T01:08:21;4.63;;;3.33;;
48767;SDS011;34933;40.968;14.538;2022-08-06T01:11:06;4.03;;;3.67;;
48767;SDS011;34933;40.968;14.538;2022-08-06T01:13:54;4.90;;;3.30;;
48767;SDS011;34933;40.968;14.538;2022-08-06T01:16:54;5.10;;;3.45;;
48767;SDS011;34933;40.968;14.538;2022-08-06T01:19:53;4.03;;;2.90;;
48767;SDS011;34933;40.968;14.538;2022-08-06T01:31:46;4.45;;;3.22;;
48767;SDS011;34933;40.968;14.538;2022-08-06T01:34:48;4.50;;;3.60;;
48767;SDS011;34933;40.968;14.538;2022-08-06T01:40:34;7.18;;;3.35;;
48767;SDS011;34933;40.968;14.538;2022-08-06T01:43:21;6.82;;;3.40;;
48767;SDS011;34933;40.968;14.538;2022-08-06T01:46:07;5.47;;;3.00;;
48767;SDS011;34933;40.968;14.538;2022-08-06T01:48:55;6.43;;;3.30;;
48767;SDS011;34933;40.968;14.538;2022-08-06T01:51:40;3.63;;;3.25;;
48767;SDS011;34933;40.968;14.538;2022-08-06T01:54:27;6.50;;;3.30;;
48767;SDS011;34933;40.968;14.538;2022-08-06T01:57:13;4.63;;;3.08;;
48767;SDS011;34933;40.968;14.538;2022-08-06T02:00:02;3.60;;;3.20;;
48767;SDS011;34933;40.968;14.538;2022-08-06T02:02:58;5.30;;;3.17;;
48767;SDS011;34933;40.968;14.538;2022-08-06T02:05:44;7.90;;;3.20;;
48767;SDS011;34933;40.968;14.538;2022-08-06T02:08:30;6.55;;;3.40;;
48767;SDS011;34933;40.968;14.538;2022-08-06T02:11:18;6.70;;;3.72;;
48767;SDS011;34933;40.968;14.538;2022-08-06T02:14:02;5.05;;;3.10;;
48767;SDS011;34933;40.968;14.538;2022-08-06T02:16:50;5.53;;;3.33;;
48767;SDS011;34933;40.968;14.538;2022-08-06T02:19:40;5.07;;;3.30;;
48767;SDS011;34933;40.968;14.538;2022-08-06T02:22:34;5.55;;;3.70;;
48767;SDS011;34933;40.968;14.538;2022-08-06T02:25:22;8.25;;;3.65;;
48767;SDS011;34933;40.968;14.538;2022-08-06T02:28:12;4.25;;;3.10;;
48767;SDS011;34933;40.968;14.538;2022-08-06T02:30:59;6.15;;;3.20;;
48767;SDS011;34933;40.968;14.538;2022-08-06T02:33:45;4.80;;;3.13;;
48767;SDS011;34933;40.968;14.538;2022-08-06T02:36:32;3.78;;;3.00;;
48767;SDS011;34933;40.968;14.538;2022-08-06T02:39:24;6.88;;;3.40;;
48767;SDS011;34933;40.968;14.538;2022-08-06T02:42:12;4.22;;;2.97;;
48767;SDS011;34933;40.968;14.538;2022-08-06T02:45:08;3.40;;;3.10;;
48767;SDS011;34933;40.968;14.538;2022-08-06T02:48:23;4.45;;;3.30;;
48767;SDS011;34933;40.968;14.538;2022-08-06T02:51:10;3.60;;;3.30;;
48767;SDS011;34933;40.968;14.538;2022-08-06T02:54:02;12.07;;;3.28;;
48767;SDS011;34933;40.968;14.538;2022-08-06T02:57:03;6.45;;;3.08;;
48767;SDS011;34933;40.968;14.538;2022-08-06T02:59:52;3.47;;;3.00;;
48767;SDS011;34933;40.968;14.538;2022-08-06T03:02:44;6.95;;;3.53;;
48767;SDS011;34933;40.968;14.538;2022-08-06T03:05:30;5.10;;;3.20;;
48767;SDS011;34933;40.968;14.538;2022-08-06T03:08:16;3.50;;;2.83;;
48767;SDS011;34933;40.968;14.538;2022-08-06T03:11:04;5.88;;;3.65;;
48767;SDS011;34933;40.968;14.538;2022-08-06T03:13:52;8.65;;;3.30;;
48767;SDS011;34933;40.968;14.538;2022-08-06T03:16:38;5.82;;;3.40;;
48767;SDS011;34933;40.968;14.538;2022-08-06T03:19:25;4.13;;;3.25;;
48767;SDS011;34933;40.968;14.538;2022-08-06T03:22:11;4.13;;;3.03;;
48767;SDS011;34933;40.968;14.538;2022-08-06T03:24:58;4.43;;;2.90;;
48767;SDS011;34933;40.968;14.538;2022-08-06T03:27:44;6.07;;;2.88;;
48767;SDS011;34933;40.968;14.538;2022-08-06T03:30:30;5.03;;;3.53;;
48767;SDS011;34933;40.968;14.538;2022-08-06T03:33:16;6.82;;;3.30;;
48767;SDS011;34933;40.968;14.538;2022-08-06T03:36:01;8.02;;;3.63;;
48767;SDS011;34933;40.968;14.538;2022-08-06T03:38:49;8.10;;;3.38;;
48767;SDS011;34933;40.968;14.538;2022-08-06T03:41:54;5.63;;;3.17;;
48767;SDS011;34933;40.968;14.538;2022-08-06T03:44:39;7.57;;;3.30;;
48767;SDS011;34933;40.968;14.538;2022-08-06T03:47:25;10.77;;;3.40;;
48767;SDS011;34933;40.968;14.538;2022-08-06T03:50:18;9.05;;;3.63;;
48767;SDS011;34933;40.968;14.538;2022-08-06T03:53:07;6.15;;;3.60;;
48767;SDS011;34933;40.968;14.538;2022-08-06T03:56:03;4.28;;;3.42;;
48767;SDS011;34933;40.968;14.538;2022-08-06T03:58:50;5.45;;;3.40;;
48767;SDS011;34933;40.968;14.538;2022-08-06T04:01:36;7.65;;;3.85;;
48767;SDS011;34933;40.968;14.538;2022-08-06T04:04:24;6.32;;;3.28;;
48767;SDS011;34933;40.968;14.538;2022-08-06T04:07:11;12.13;;;4.00;;
48767;SDS011;34933;40.968;14.538;2022-08-06T04:09:58;5.70;;;4.40;;
48767;SDS011;34933;40.968;14.538;2022-08-06T04:12:44;8.85;;;4.00;;
48767;SDS011;34933;40.968;14.538;2022-08-06T04:15:29;7.18;;;4.93;;
48767;SDS011;34933;40.968;14.538;2022-08-06T04:18:14;8.95;;;4.75;;
48767;SDS011;34933;40.968;14.538;2022-08-06T04:21:03;5.95;;;4.75;;
48767;SDS011;34933;40.968;14.538;2022-08-06T04:23:50;7.63;;;4.68;;
48767;SDS011;34933;40.968;14.538;2022-08-06T04:26:35;13.18;;;4.65;;
48767;SDS011;34933;40.968;14.538;2022-08-06T04:29:21;12.57;;;4.80;;
48767;SDS011;34933;40.968;14.538;2022-08-06T04:32:06;10.27;;;5.38;;
48767;SDS011;34933;40.968;14.538;2022-08-06T04:34:52;12.15;;;6.07;;
48767;SDS011;34933;40.968;14.538;2022-08-06T04:37:39;11.20;;;6.70;;
48767;SDS011;34933;40.968;14.538;2022-08-06T04:40:23;13.75;;;9.40;;
48767;SDS011;34933;40.968;14.538;2022-08-06T04:43:09;16.02;;;8.98;;
48767;SDS011;34933;40.968;14.538;2022-08-06T04:45:54;17.02;;;9.82;;
48767;SDS011;34933;40.968;14.538;2022-08-06T04:48:40;15.13;;;9.73;;
48767;SDS011;34933;40.968;14.538;2022-08-06T04:51:24;16.45;;;9.85;;
48767;SDS011;34933;40.968;14.538;2022-08-06T04:54:09;13.93;;;9.80;;
48767;SDS011;34933;40.968;14.538;2022-08-06T04:56:53;21.17;;;10.15;;
48767;SDS011;34933;40.968;14.538;2022-08-06T04:59:38;21.65;;;11.88;;
48767;SDS011;34933;40.968;14.538;2022-08-06T05:02:23;18.88;;;12.02;;
48767;SDS011;34933;40.968;14.538;2022-08-06T05:05:07;23.60;;;12.60;;
48767;SDS011;34933;40.968;14.538;2022-08-06T05:07:55;18.40;;;11.50;;
48767;SDS011;34933;40.968;14.538;2022-08-06T05:10:57;21.70;;;11.52;;
48767;SDS011;34933;40.968;14.538;2022-08-06T05:13:46;29.63;;;12.25;;
48767;SDS011;34933;40.968;14.538;2022-08-06T05:16:38;18.92;;;11.20;;
48767;SDS011;34933;40.968;14.538;2022-08-06T05:19:31;17.17;;;10.45;;
48767;SDS011;34933;40.968;14.538;2022-08-06T05:22:18;22.00;;;10.57;;
48767;SDS011;34933;40.968;14.538;2022-08-06T05:25:05;16.88;;;10.05;;
48767;SDS011;34933;40.968;14.538;2022-08-06T05:27:50;17.92;;;9.25;;
48767;SDS011;34933;40.968;14.538;2022-08-06T05:30:42;37.28;;;9.52;;
48767;SDS011;34933;40.968;14.538;2022-08-06T05:33:32;17.20;;;8.27;;
48767;SDS011;34933;40.968;14.538;2022-08-06T05:36:20;22.30;;;8.50;;
48767;SDS011;34933;40.968;14.538;2022-08-06T05:39:05;24.17;;;9.90;;
48767;SDS011;34933;40.968;14.538;2022-08-06T05:41:50;24.90;;;9.70;;
48767;SDS011;34933;40.968;14.538;2022-08-06T05:44:35;24.98;;;9.93;;
48767;SDS011;34933;40.968;14.538;2022-08-06T05:47:20;16.70;;;8.60;;
48767;SDS011;34933;40.968;14.538;2022-08-06T05:50:09;23.48;;;8.88;;
48767;SDS011;34933;40.968;14.538;2022-08-06T05:53:02;28.10;;;9.07;;
48767;SDS011;34933;40.968;14.538;2022-08-06T05:55:54;24.25;;;8.95;;
48767;SDS011;34933;40.968;14.538;2022-08-06T05:58:49;21.48;;;7.90;;
48767;SDS011;34933;40.968;14.538;2022-08-06T06:01:39;20.20;;;9.20;;
48767;SDS011;34933;40.968;14.538;2022-08-06T06:04:24;29.50;;;7.95;;
48767;SDS011;34933;40.968;14.538;2022-08-06T06:07:09;21.25;;;8.85;;
48767;SDS011;34933;40.968;14.538;2022-08-06T06:09:55;19.58;;;9.80;;
48767;SDS011;34933;40.968;14.538;2022-08-06T06:12:40;25.92;;;8.60;;
48767;SDS011;34933;40.968;14.538;2022-08-06T06:15:25;28.80;;;8.10;;
48767;SDS011;34933;40.968;14.538;2022-08-06T06:21:00;29.17;;;9.18;;
48767;SDS011;34933;40.968;14.538;2022-08-06T06:26:57;21.67;;;10.27;;
48767;SDS011;34933;40.968;14.538;2022-08-06T06:29:58;9.75;;;6.47;;
48767;SDS011;34933;40.968;14.538;2022-08-06T06:32:59;16.13;;;7.35;;
48767;SDS011;34933;40.968;14.538;2022-08-06T06:36:28;11.07;;;6.78;;
48767;SDS011;34933;40.968;14.538;2022-08-06T06:39:21;12.95;;;6.50;;
48767;SDS011;34933;40.968;14.538;2022-08-06T06:42:16;16.95;;;6.57;;
48767;SDS011;34933;40.968;14.538;2022-08-06T06:45:30;14.23;;;7.40;;
48767;SDS011;34933;40.968;14.538;2022-08-06T06:48:23;12.27;;;6.57;;
48767;SDS011;34933;40.968;14.538;2022-08-06T06:51:20;12.35;;;6.25;;
48767;SDS011;34933;40.968;14.538;2022-08-06T06:54:12;18.55;;;6.65;;
48767;SDS011;34933;40.968;14.538;2022-08-06T06:57:13;20.27;;;6.07;;
48767;SDS011;34933;40.968;14.538;2022-08-06T07:00:04;16.00;;;6.82;;
48767;SDS011;34933;40.968;14.538;2022-08-06T07:02:49;21.33;;;6.60;;
48767;SDS011;34933;40.968;14.538;2022-08-06T07:05:37;14.50;;;6.60;;
48767;SDS011;34933;40.968;14.538;2022-08-06T07:08:24;16.17;;;6.65;;
48767;SDS011;34933;40.968;14.538;2022-08-06T07:11:17;15.80;;;6.05;;
48767;SDS011;34933;40.968;14.538;2022-08-06T07:14:03;17.33;;;5.18;;
48767;SDS011;34933;40.968;14.538;2022-08-06T07:16:50;10.57;;;4.53;;
48767;SDS011;34933;40.968;14.538;2022-08-06T07:19:36;11.10;;;5.40;;
48767;SDS011;34933;40.968;14.538;2022-08-06T07:22:22;9.85;;;5.13;;
48767;SDS011;34933;40.968;14.538;2022-08-06T07:25:09;12.10;;;5.03;;
48767;SDS011;34933;40.968;14.538;2022-08-06T07:42:28;11.15;;;5.20;;
48767;SDS011;34933;40.968;14.538;2022-08-06T07:45:15;12.27;;;4.47;;
48767;SDS011;34933;40.968;14.538;2022-08-06T07:48:11;8.45;;;3.75;;
48767;SDS011;34933;40.968;14.538;2022-08-06T07:50:58;7.70;;;4.18;;
48767;SDS011;34933;40.968;14.538;2022-08-06T07:53:44;48.72;;;8.95;;
48767;SDS011;34933;40.968;14.538;2022-08-06T07:56:29;148.55;;;26.17;;
48767;SDS011;34933;40.968;14.538;2022-08-06T07:59:14;10.43;;;3.92;;
48767;SDS011;34933;40.968;14.538;2022-08-06T08:02:00;26.88;;;6.63;;
48767;SDS011;34933;40.968;14.538;2022-08-06T08:04:46;8.73;;;5.10;;
48767;SDS011;34933;40.968;14.538;2022-08-06T08:07:50;11.15;;;4.40;;
48767;SDS011;34933;40.968;14.538;2022-08-06T08:10:34;15.48;;;6.20;;
48767;SDS011;34933;40.968;14.538;2022-08-06T08:13:20;10.85;;;4.18;;
48767;SDS011;34933;40.968;14.538;2022-08-06T08:16:07;10.52;;;3.83;;
48767;SDS011;34933;40.968;14.538;2022-08-06T08:18:55;13.48;;;4.70;;
48767;SDS011;34933;40.968;14.538;2022-08-06T08:21:41;7.15;;;4.13;;
48767;SDS011;34933;40.968;14.538;2022-08-06T08:24:26;11.00;;;4.30;;
48767;SDS011;34933;40.968;14.538;2022-08-06T08:27:11;10.85;;;4.05;;
48767;SDS011;34933;40.968;14.538;2022-08-06T08:29:56;7.07;;;3.78;;
48767;SDS011;34933;40.968;14.538;2022-08-06T08:32:42;9.43;;;3.88;;
48767;SDS011;34933;40.968;14.538;2022-08-06T08:35:26;8.05;;;3.92;;
48767;SDS011;34933;40.968;14.538;2022-08-06T08:38:11;8.85;;;3.72;;
48767;SDS011;34933;40.968;14.538;2022-08-06T08:40:56;11.13;;;3.90;;
48767;SDS011;34933;40.968;14.538;2022-08-06T08:43:46;9.55;;;4.22;;
48767;SDS011;34933;40.968;14.538;2022-08-06T08:46:40;9.95;;;4.03;;
48767;SDS011;34933;40.968;14.538;2022-08-06T08:52:28;6.72;;;4.10;;
48767;SDS011;34933;40.968;14.538;2022-08-06T08:55:17;9.38;;;4.20;;
48767;SDS011;34933;40.968;14.538;2022-08-06T08:58:06;10.32;;;4.82;;
48767;SDS011;34933;40.968;14.538;2022-08-06T09:00:51;7.15;;;4.80;;
48767;SDS011;34933;40.968;14.538;2022-08-06T09:03:36;12.38;;;5.07;;
48767;SDS011;34933;40.968;14.538;2022-08-06T09:06:22;11.77;;;5.22;;
48767;SDS011;34933;40.968;14.538;2022-08-06T09:09:07;7.72;;;4.68;;
48767;SDS011;34933;40.968;14.538;2022-08-06T09:11:52;6.63;;;4.53;;
48767;SDS011;34933;40.968;14.538;2022-08-06T09:14:37;16.08;;;6.03;;
48767;SDS011;34933;40.968;14.538;2022-08-06T09:17:22;14.88;;;5.63;;
48767;SDS011;34933;40.968;14.538;2022-08-06T09:20:09;15.95;;;5.35;;
48767;SDS011;34933;40.968;14.538;2022-08-06T09:22:54;9.05;;;4.97;;
48767;SDS011;34933;40.968;14.538;2022-08-06T09:28:29;8.20;;;4.95;;
48767;SDS011;34933;40.968;14.538;2022-08-06T09:31:14;13.90;;;4.97;;
48767;SDS011;34933;40.968;14.538;2022-08-06T09:34:04;7.75;;;5.07;;
48767;SDS011;34933;40.968;14.538;2022-08-06T09:36:49;9.48;;;4.30;;
48767;SDS011;34933;40.968;14.538;2022-08-06T09:39:35;8.43;;;4.40;;
48767;SDS011;34933;40.968;14.538;2022-08-06T09:42:37;7.20;;;4.30;;
48767;SDS011;34933;40.968;14.538;2022-08-06T09:45:22;8.45;;;4.20;;
48767;SDS011;34933;40.968;14.538;2022-08-06T09:48:08;6.72;;;4.22;;
48767;SDS011;34933;40.968;14.538;2022-08-06T09:50:53;11.45;;;4.53;;
48767;SDS011;34933;40.968;14.538;2022-08-06T09:53:37;8.50;;;4.65;;
48767;SDS011;34933;40.968;14.538;2022-08-06T09:56:39;6.50;;;4.55;;
48767;SDS011;34933;40.968;14.538;2022-08-06T09:59:23;8.70;;;4.25;;
48767;SDS011;34933;40.968;14.538;2022-08-06T10:02:12;6.03;;;4.15;;
48767;SDS011;34933;40.968;14.538;2022-08-06T10:05:08;5.55;;;3.97;;
48767;SDS011;34933;40.968;14.538;2022-08-06T10:10:53;5.45;;;4.15;;
48767;SDS011;34933;40.968;14.538;2022-08-06T10:13:38;6.25;;;4.30;;
48767;SDS011;34933;40.968;14.538;2022-08-06T10:16:23;10.55;;;4.70;;
48767;SDS011;34933;40.968;14.538;2022-08-06T10:19:15;5.50;;;4.20;;
48767;SDS011;34933;40.968;14.538;2022-08-06T10:22:05;8.57;;;4.90;;
48767;SDS011;34933;40.968;14.538;2022-08-06T10:24:51;11.43;;;5.13;;
48767;SDS011;34933;40.968;14.538;2022-08-06T10:27:39;8.40;;;4.75;;
48767;SDS011;34933;40.968;14.538;2022-08-06T10:30:24;9.60;;;4.30;;
48767;SDS011;34933;40.968;14.538;2022-08-06T10:33:10;13.60;;;5.25;;
48767;SDS011;34933;40.968;14.538;2022-08-06T10:35:58;12.15;;;4.70;;
48767;SDS011;34933;40.968;14.538;2022-08-06T10:38:49;11.90;;;4.82;;
48767;SDS011;34933;40.968;14.538;2022-08-06T10:41:35;10.88;;;4.10;;
48767;SDS011;34933;40.968;14.538;2022-08-06T10:44:23;10.50;;;4.75;;
48767;SDS011;34933;40.968;14.538;2022-08-06T10:47:08;10.48;;;7.13;;
48767;SDS011;34933;40.968;14.538;2022-08-06T10:49:52;7.28;;;4.97;;
48767;SDS011;34933;40.968;14.538;2022-08-06T10:52:38;14.38;;;4.57;;
48767;SDS011;34933;40.968;14.538;2022-08-06T10:55:24;7.50;;;3.88;;
48767;SDS011;34933;40.968;14.538;2022-08-06T10:58:09;8.98;;;4.63;;
48767;SDS011;34933;40.968;14.538;2022-08-06T11:00:54;11.25;;;4.40;;
48767;SDS011;34933;40.968;14.538;2022-08-06T11:03:47;7.85;;;4.43;;
48767;SDS011;34933;40.968;14.538;2022-08-06T11:10:00;4.47;;;3.80;;
48767;SDS011;34933;40.968;14.538;2022-08-06T11:15:51;6.20;;;4.32;;
48767;SDS011;34933;40.968;14.538;2022-08-06T11:18:36;7.03;;;3.60;;
48767;SDS011;34933;40.968;14.538;2022-08-06T11:21:51;4.85;;;4.25;;
48767;SDS011;34933;40.968;14.538;2022-08-06T11:24:48;6.75;;;3.88;;
48767;SDS011;34933;40.968;14.538;2022-08-06T11:27:54;11.20;;;5.53;;
48767;SDS011;34933;40.968;14.538;2022-08-06T11:30:44;9.65;;;3.80;;
48767;SDS011;34933;40.968;14.538;2022-08-06T11:36:25;6.85;;;4.45;;
48767;SDS011;34933;40.968;14.538;2022-08-06T11:39:10;6.10;;;3.60;;
48767;SDS011;34933;40.968;14.538;2022-08-06T11:41:59;7.88;;;3.30;;
48767;SDS011;34933;40.968;14.538;2022-08-06T11:44:59;9.18;;;3.47;;
48767;SDS011;34933;40.968;14.538;2022-08-06T11:48:04;9.43;;;3.80;;
48767;SDS011;34933;40.968;14.538;2022-08-06T11:50:49;7.63;;;3.67;;
48767;SDS011;34933;40.968;14.538;2022-08-06T11:53:36;9.93;;;4.18;;
48767;SDS011;34933;40.968;14.538;2022-08-06T11:56:21;7.82;;;3.97;;
48767;SDS011;34933;40.968;14.538;2022-08-06T11:59:12;11.52;;;4.32;;
48767;SDS011;34933;40.968;14.538;2022-08-06T12:01:58;14.43;;;4.03;;
48767;SDS011;34933;40.968;14.538;2022-08-06T12:04:44;6.80;;;4.72;;
48767;SDS011;34933;40.968;14.538;2022-08-06T12:07:30;15.27;;;4.53;;
48767;SDS011;34933;40.968;14.538;2022-08-06T12:10:18;15.07;;;5.18;;
48767;SDS011;34933;40.968;14.538;2022-08-06T12:13:02;19.38;;;4.85;;
48767;SDS011;34933;40.968;14.538;2022-08-06T12:15:47;11.30;;;4.03;;
48767;SDS011;34933;40.968;14.538;2022-08-06T12:18:37;17.63;;;4.00;;
48767;SDS011;34933;40.968;14.538;2022-08-06T12:21:22;5.95;;;3.15;;
48767;SDS011;34933;40.968;14.538;2022-08-06T12:24:10;7.90;;;3.20;;
48767;SDS011;34933;40.968;14.538;2022-08-06T12:26:55;4.78;;;2.90;;
48767;SDS011;34933;40.968;14.538;2022-08-06T12:29:40;5.55;;;3.08;;
48767;SDS011;34933;40.968;14.538;2022-08-06T12:32:27;6.47;;;3.17;;
48767;SDS011;34933;40.968;14.538;2022-08-06T12:35:14;13.50;;;3.40;;
48767;SDS011;34933;40.968;14.538;2022-08-06T12:37:58;8.68;;;3.88;;
48767;SDS011;34933;40.968;14.538;2022-08-06T12:43:42;11.02;;;6.55;;
48767;SDS011;34933;40.968;14.538;2022-08-06T12:46:30;13.13;;;5.68;;
48767;SDS011;34933;40.968;14.538;2022-08-06T12:49:14;10.93;;;4.95;;
48767;SDS011;34933;40.968;14.538;2022-08-06T12:52:10;12.07;;;5.03;;
48767;SDS011;34933;40.968;14.538;2022-08-06T12:54:57;9.18;;;4.45;;
48767;SDS011;34933;40.968;14.538;2022-08-06T12:57:42;6.50;;;4.47;;
48767;SDS011;34933;40.968;14.538;2022-08-06T13:00:27;6.07;;;3.95;;
48767;SDS011;34933;40.968;14.538;2022-08-06T13:03:13;6.72;;;4.60;;
48767;SDS011;34933;40.968;14.538;2022-08-06T13:05:59;8.57;;;4.25;;
48767;SDS011;34933;40.968;14.538;2022-08-06T13:08:47;6.30;;;4.00;;
48767;SDS011;34933;40.968;14.538;2022-08-06T13:11:32;6.05;;;4.13;;
48767;SDS011;34933;40.968;14.538;2022-08-06T13:14:18;7.28;;;3.75;;
48767;SDS011;34933;40.968;14.538;2022-08-06T13:17:10;10.98;;;4.30;;
48767;SDS011;34933;40.968;14.538;2022-08-06T13:19:56;4.43;;;3.75;;
48767;SDS011;34933;40.968;14.538;2022-08-06T13:22:51;6.05;;;3.85;;
48767;SDS011;34933;40.968;14.538;2022-08-06T13:25:42;9.75;;;3.97;;
48767;SDS011;34933;40.968;14.538;2022-08-06T13:28:28;5.93;;;4.07;;
48767;SDS011;34933;40.968;14.538;2022-08-06T13:31:17;8.05;;;3.90;;
48767;SDS011;34933;40.968;14.538;2022-08-06T13:34:04;9.90;;;3.40;;
48767;SDS011;34933;40.968;14.538;2022-08-06T13:36:54;9.93;;;3.80;;
48767;SDS011;34933;40.968;14.538;2022-08-06T13:39:49;9.05;;;4.07;;
48767;SDS011;34933;40.968;14.538;2022-08-06T13:42:47;6.65;;;3.97;;
48767;SDS011;34933;40.968;14.538;2022-08-06T13:45:41;8.45;;;3.55;;
48767;SDS011;34933;40.968;14.538;2022-08-06T13:48:25;8.73;;;3.25;;
48767;SDS011;34933;40.968;14.538;2022-08-06T13:51:11;6.85;;;3.20;;
48767;SDS011;34933;40.968;14.538;2022-08-06T13:53:56;8.18;;;2.58;;
48767;SDS011;34933;40.968;14.538;2022-08-06T13:56:40;4.97;;;2.70;;
48767;SDS011;34933;40.968;14.538;2022-08-06T13:59:26;3.88;;;2.80;;
48767;SDS011;34933;40.968;14.538;2022-08-06T14:02:11;4.15;;;2.60;;
48767;SDS011;34933;40.968;14.538;2022-08-06T14:04:56;3.15;;;2.50;;
48767;SDS011;34933;40.968;14.538;2022-08-06T14:07:40;5.35;;;2.42;;
48767;SDS011;34933;40.968;14.538;2022-08-06T14:10:25;5.00;;;2.83;;
48767;SDS011;34933;40.968;14.538;2022-08-06T14:13:11;8.00;;;3.10;;
48767;SDS011;34933;40.968;14.538;2022-08-06T14:18:46;4.43;;;2.40;;
48767;SDS011;34933;40.968;14.538;2022-08-06T14:21:31;3.08;;;2.72;;
48767;SDS011;34933;40.968;14.538;2022-08-06T14:24:16;3.30;;;2.25;;
48767;SDS011;34933;40.968;14.538;2022-08-06T14:27:00;3.33;;;2.20;;
48767;SDS011;34933;40.968;14.538;2022-08-06T14:29:45;3.92;;;2.70;;
48767;SDS011;34933;40.968;14.538;2022-08-06T14:32:29;5.03;;;2.65;;
48767;SDS011;34933;40.968;14.538;2022-08-06T14:35:15;5.53;;;2.40;;
48767;SDS011;34933;40.968;14.538;2022-08-06T14:38:00;6.22;;;2.15;;
48767;SDS011;34933;40.968;14.538;2022-08-06T14:40:45;4.45;;;2.65;;
48767;SDS011;34933;40.968;14.538;2022-08-06T14:43:48;6.32;;;2.42;;
48767;SDS011;34933;40.968;14.538;2022-08-06T14:46:52;6.28;;;2.20;;
48767;SDS011;34933;40.968;14.538;2022-08-06T14:49:36;6.15;;;2.55;;
48767;SDS011;34933;40.968;14.538;2022-08-06T14:52:23;4.55;;;2.70;;
48767;SDS011;34933;40.968;14.538;2022-08-06T14:55:08;5.05;;;2.33;;
48767;SDS011;34933;40.968;14.538;2022-08-06T14:57:53;12.70;;;3.03;;
48767;SDS011;34933;40.968;14.538;2022-08-06T15:00:38;9.27;;;2.83;;
48767;SDS011;34933;40.968;14.538;2022-08-06T15:03:22;5.18;;;2.00;;
48767;SDS011;34933;40.968;14.538;2022-08-06T15:06:07;3.72;;;2.00;;
48767;SDS011;34933;40.968;14.538;2022-08-06T15:08:52;3.83;;;1.70;;
48767;SDS011;34933;40.968;14.538;2022-08-06T15:11:37;7.65;;;2.10;;
48767;SDS011;34933;40.968;14.538;2022-08-06T15:14:22;7.00;;;2.10;;
48767;SDS011;34933;40.968;14.538;2022-08-06T15:17:07;5.50;;;2.53;;
48767;SDS011;34933;40.968;14.538;2022-08-06T15:19:51;7.45;;;2.20;;
48767;SDS011;34933;40.968;14.538;2022-08-06T15:22:36;5.78;;;2.03;;
48767;SDS011;34933;40.968;14.538;2022-08-06T15:25:21;3.65;;;2.03;;
48767;SDS011;34933;40.968;14.538;2022-08-06T15:28:06;4.22;;;2.40;;
48767;SDS011;34933;40.968;14.538;2022-08-06T15:30:50;2.80;;;2.17;;
48767;SDS011;34933;40.968;14.538;2022-08-06T15:33:35;10.32;;;2.30;;
48767;SDS011;34933;40.968;14.538;2022-08-06T15:36:20;13.32;;;2.80;;
48767;SDS011;34933;40.968;14.538;2022-08-06T15:39:04;5.20;;;2.20;;
48767;SDS011;34933;40.968;14.538;2022-08-06T15:41:49;4.47;;;1.90;;
48767;SDS011;34933;40.968;14.538;2022-08-06T15:44:33;3.95;;;2.25;;
48767;SDS011;34933;40.968;14.538;2022-08-06T15:47:19;5.45;;;2.10;;
48767;SDS011;34933;40.968;14.538;2022-08-06T15:50:05;7.07;;;2.40;;
48767;SDS011;34933;40.968;14.538;2022-08-06T15:52:50;4.95;;;2.10;;
48767;SDS011;34933;40.968;14.538;2022-08-06T15:55:35;6.45;;;2.25;;
48767;SDS011;34933;40.968;14.538;2022-08-06T15:58:19;7.32;;;2.15;;
48767;SDS011;34933;40.968;14.538;2022-08-06T16:01:04;9.93;;;2.40;;
48767;SDS011;34933;40.968;14.538;2022-08-06T16:03:49;12.57;;;2.88;;
48767;SDS011;34933;40.968;14.538;2022-08-06T16:06:33;18.48;;;3.00;;
48767;SDS011;34933;40.968;14.538;2022-08-06T16:09:18;13.07;;;2.47;;
48767;SDS011;34933;40.968;14.538;2022-08-06T16:12:03;16.55;;;3.20;;
48767;SDS011;34933;40.968;14.538;2022-08-06T16:14:49;14.75;;;3.38;;
48767;SDS011;34933;40.968;14.538;2022-08-06T16:17:34;21.63;;;5.50;;
48767;SDS011;34933;40.968;14.538;2022-08-06T16:20:19;16.02;;;3.88;;
48767;SDS011;34933;40.968;14.538;2022-08-06T16:23:03;18.60;;;2.92;;
48767;SDS011;34933;40.968;14.538;2022-08-06T16:25:48;21.60;;;4.05;;
48767;SDS011;34933;40.968;14.538;2022-08-06T16:28:33;11.40;;;3.70;;
48767;SDS011;34933;40.968;14.538;2022-08-06T16:31:17;14.43;;;3.80;;
48767;SDS011;34933;40.968;14.538;2022-08-06T16:34:03;6.20;;;2.95;;
48767;SDS011;34933;40.968;14.538;2022-08-06T16:36:47;8.20;;;2.42;;
48767;SDS011;34933;40.968;14.538;2022-08-06T16:39:32;6.20;;;2.42;;
48767;SDS011;34933;40.968;14.538;2022-08-06T16:42:16;8.57;;;2.78;;
48767;SDS011;34933;40.968;14.538;2022-08-06T16:45:01;5.20;;;2.33;;
48767;SDS011;34933;40.968;14.538;2022-08-06T16:47:47;7.97;;;2.78;;
48767;SDS011;34933;40.968;14.538;2022-08-06T16:50:32;5.63;;;2.00;;
48767;SDS011;34933;40.968;14.538;2022-08-06T16:53:20;4.82;;;2.25;;
48767;SDS011;34933;40.968;14.538;2022-08-06T16:56:05;6.15;;;1.88;;
48767;SDS011;34933;40.968;14.538;2022-08-06T16:58:50;10.02;;;3.95;;
48767;SDS011;34933;40.968;14.538;2022-08-06T17:01:35;3.90;;;2.33;;
48767;SDS011;34933;40.968;14.538;2022-08-06T17:04:20;9.65;;;2.63;;
48767;SDS011;34933;40.968;14.538;2022-08-06T17:07:04;5.28;;;2.22;;
48767;SDS011;34933;40.968;14.538;2022-08-06T17:09:49;8.63;;;2.70;;
48767;SDS011;34933;40.968;14.538;2022-08-06T17:12:36;5.45;;;2.10;;
48767;SDS011;34933;40.968;14.538;2022-08-06T17:15:21;5.65;;;2.45;;
48767;SDS011;34933;40.968;14.538;2022-08-06T17:18:06;10.63;;;2.60;;
48767;SDS011;34933;40.968;14.538;2022-08-06T17:20:50;9.60;;;2.97;;
48767;SDS011;34933;40.968;14.538;2022-08-06T17:23:35;8.95;;;2.58;;
48767;SDS011;34933;40.968;14.538;2022-08-06T17:26:19;19.20;;;3.58;;